Aeroporto :
LOGIN :

Iscrizione | Disclaimer

   EN    FR    IT 

 










Sommario :    VFR   VFR Marginale   IFR   IFR Intensivo   IFR Molto Intensivo
Visibilità : 
Base nubi : 
>= 8 km
>= 3000ft
5 / 8 km
1000 / 3000 ft
1500m / 5 km
500 / 1000 ft
800 / 1500m
200 / 500 ft
< 800m
< 200 ft
Simboli :   Temporali  Nebbia  Neve Forte  Precipitazioni Forti  Vento > 20 kt
SIGMETs :   Varie  Temporali  Ghiacco  Turbolenza  Onda orograficha  Ceneri Vulcaniche






- Altitudine del aeroporto : 90 ft
- Codice IATA : NTE


LFRS - Nantes

ULTIMO METAR :
  • 211530Z AUTO 16007KT 9999 FEW011/// SCT046/// BKN070/// ///CB 09/08 Q0999 TEMPO 17015G25KT 4000 SHRA BKN006 BKN025CB

METARs OBSOLETI :
  • 211500Z AUTO 17010KT 5000 RA BR FEW008/// BKN014/// BKN025/// ///CB 09/08 Q0999 TEMPO 17015G25KT BKN006 BKN025CB
  • 211430Z AUTO 17006KT 140V210 4800 1800 RA BR SCT009/// BKN023/// BKN054/// ///CB 09/09 Q0999 TEMPO 17015G25KT BKN006 BKN025CB
  • 211400Z AUTO 14006KT 9999 FEW008/// BKN088/// BKN180/// ///CB 10/09 Q0999 TEMPO 17015G25KT 4000 SHRA BKN006 BKN025CB
  • 211330Z AUTO 14008KT 9999 SCT045/// BKN060/// BKN094/// ///TCU 09/09 Q0999 TEMPO 17015G25KT 4000 SHRA BKN006 BKN025CB
  • 211300Z AUTO 16009KT 8000 -RA FEW009/// BKN039/// BKN046/// ///CB 09/09 Q0999 TEMPO 17015G25KT 4000 SHRA BKN006 BKN025CB

TAF AMD TAF LFRS
Valido dal 21 a 12 ore il 22 a 18 ore UTC


211216Z 2112/2218 15010KT 9999 BKN020
TEMPO 2112/2206 17015G25KT 4000 SHRA BKN006 BKN025CB
BECMG 2210/2212 13015G25KT
TEMPO 2215/2218 4000 RA BKN014
ATIS : +33 2 40 05 12 74



MetMap, La meteo Aeronautica in un colpo d'occhio ! - Copyright ORBIFLY Dicembre 2007 - Disclaimer

ORBIFLY MET'MAP TEAM :

Programmazione e sviluppo : Alexandra Zaïnal
Concezione e sviluppo : Baudouin d'Aumeries
Co-Programmazione e sviluppo : Marc-Olivier Méhu
Supporto tecnico e logistico : Manuel Goepfert
Aiuto per la traduzione : Arnaldo La Scala

Contatto : metmap@orbifly.com




FONTI E CREDITI :

   NOAA